createdAt,value
2022-08-11T00:00:09.052Z,100.00
2022-08-11T00:02:41.310Z,100.00
2022-08-11T00:05:16.855Z,100.00
2022-08-11T00:07:54.742Z,100.00
2022-08-11T00:10:27.770Z,100.00
2022-08-11T00:12:56.797Z,100.00
2022-08-11T00:15:26.544Z,100.00
2022-08-11T00:18:01.453Z,100.00
2022-08-11T00:20:39.846Z,100.00
2022-08-11T00:23:09.426Z,100.00
2022-08-11T00:25:42.937Z,100.00
2022-08-11T00:28:30.196Z,100.00
2022-08-11T00:30:59.739Z,100.00
2022-08-11T00:33:44.823Z,100.00
2022-08-11T00:36:20.879Z,100.00
2022-08-11T00:38:53.970Z,100.00
2022-08-11T00:41:42.102Z,100.00
2022-08-11T00:44:20.966Z,100.00
2022-08-11T00:46:53.691Z,100.00
2022-08-11T00:49:52.057Z,100.00
2022-08-11T00:52:47.814Z,100.00
2022-08-11T00:55:47.266Z,100.00
2022-08-11T00:58:28.602Z,100.00
2022-08-11T01:01:16.909Z,100.00
2022-08-11T01:03:58.963Z,100.00
2022-08-11T01:06:49.726Z,100.00
2022-08-11T01:09:25.543Z,100.00
2022-08-11T01:12:29.958Z,100.00
2022-08-11T01:15:24.737Z,100.00
2022-08-11T01:21:26.424Z,100.00
2022-08-11T01:23:58.538Z,100.00
2022-08-11T01:26:44.075Z,100.00
2022-08-11T01:29:30.088Z,100.00
2022-08-11T01:31:56.903Z,100.00
2022-08-11T01:34:27.208Z,100.00
2022-08-11T01:37:19.243Z,100.00
2022-08-11T01:40:03.595Z,100.00
2022-08-11T01:43:03.883Z,100.00
2022-08-11T01:45:59.386Z,100.00
2022-08-11T01:48:42.425Z,100.00
2022-08-11T01:51:24.301Z,100.00
2022-08-11T01:54:22.082Z,100.00
2022-08-11T01:57:26.143Z,100.00
2022-08-11T02:00:06.742Z,100.00
2022-08-11T02:02:56.541Z,100.00
2022-08-11T02:05:41.858Z,100.00
2022-08-11T02:08:21.558Z,100.00
2022-08-11T02:11:35.851Z,100.00
2022-08-11T02:14:16.176Z,100.00
2022-08-11T02:17:13.842Z,100.00
2022-08-11T02:20:28.653Z,100.00
2022-08-11T02:23:41.066Z,100.00
2022-08-11T02:26:20.130Z,100.00
2022-08-11T02:29:00.907Z,100.00
2022-08-11T02:32:24.052Z,100.00
2022-08-11T02:35:08.566Z,100.00
2022-08-11T02:38:11.761Z,100.00
2022-08-11T02:41:25.819Z,100.00
2022-08-11T02:44:16.509Z,100.00
2022-08-11T02:46:58.659Z,100.00
2022-08-11T02:50:06.367Z,100.00
2022-08-11T02:52:42.605Z,100.00
2022-08-11T02:55:48.046Z,100.00
2022-08-11T02:58:28.432Z,100.00
2022-08-11T03:01:06.909Z,100.00
2022-08-11T03:03:51.559Z,100.00
2022-08-11T03:06:39.290Z,100.00
2022-08-11T03:09:05.945Z,100.00
2022-08-11T03:12:21.262Z,100.00
2022-08-11T03:15:35.874Z,100.00
2022-08-11T03:18:25.247Z,100.00
2022-08-11T03:21:02.693Z,100.00
2022-08-11T03:23:43.795Z,100.00
2022-08-11T03:26:24.371Z,100.00
2022-08-11T03:29:01.942Z,100.00
2022-08-11T03:31:34.865Z,100.00
2022-08-11T03:34:13.807Z,100.00
2022-08-11T03:37:17.594Z,100.00
2022-08-11T03:40:07.014Z,100.00
2022-08-11T03:42:42.703Z,100.00
2022-08-11T03:45:12.398Z,100.00
2022-08-11T03:48:00.282Z,100.00
2022-08-11T03:50:49.727Z,100.00
2022-08-11T03:53:49.392Z,100.00
2022-08-11T03:56:53.532Z,100.00
2022-08-11T03:59:39.965Z,100.00
2022-08-11T04:02:32.138Z,100.00
2022-08-11T04:05:47.024Z,100.00
2022-08-11T04:08:22.503Z,100.00
2022-08-11T04:11:00.879Z,100.00
2022-08-11T04:13:30.348Z,100.00
2022-08-11T04:16:24.951Z,100.00
2022-08-11T04:19:29.124Z,100.00
2022-08-11T04:22:36.019Z,100.00
2022-08-11T04:25:08.698Z,100.00
2022-08-11T04:28:02.287Z,100.00
2022-08-11T04:30:50.804Z,100.00
2022-08-11T04:33:36.639Z,100.00
2022-08-11T04:36:59.027Z,100.00
2022-08-11T04:39:44.007Z,100.00
2022-08-11T04:43:10.813Z,100.00
2022-08-11T04:46:02.599Z,100.00
2022-08-11T04:49:03.286Z,100.00
2022-08-11T04:51:52.495Z,100.00
2022-08-11T04:54:43.816Z,100.00
2022-08-11T04:57:41.341Z,100.00
2022-08-11T05:00:30.004Z,100.00
2022-08-11T05:03:40.911Z,100.00
2022-08-11T05:06:30.813Z,100.00
2022-08-11T05:09:21.565Z,100.00
2022-08-11T05:12:09.656Z,100.00
2022-08-11T05:15:06.498Z,100.00
2022-08-11T05:18:17.732Z,100.00
2022-08-11T05:21:08.818Z,100.00
2022-08-11T05:24:00.055Z,100.00
2022-08-11T05:26:49.622Z,100.00
2022-08-11T05:30:02.871Z,100.00
2022-08-11T05:33:00.900Z,100.00
2022-08-11T05:36:01.896Z,100.00
2022-08-11T05:38:46.933Z,100.00
2022-08-11T05:41:33.191Z,100.00
2022-08-11T05:44:22.250Z,100.00
2022-08-11T05:47:09.071Z,100.00
2022-08-11T05:49:56.699Z,100.00
2022-08-11T05:52:49.148Z,100.00
2022-08-11T05:56:02.083Z,100.00
2022-08-11T05:58:42.443Z,100.00
2022-08-11T06:01:12.112Z,100.00
2022-08-11T06:03:59.424Z,100.00
2022-08-11T06:06:29.426Z,100.00
2022-08-11T06:08:58.037Z,100.00
2022-08-11T06:11:42.954Z,100.00
2022-08-11T06:14:12.519Z,100.00
2022-08-11T06:16:42.899Z,100.00
2022-08-11T06:19:10.518Z,100.00
2022-08-11T06:21:38.185Z,100.00
2022-08-11T06:24:11.987Z,100.00
2022-08-11T06:27:09.060Z,100.00
2022-08-11T06:29:48.094Z,100.00
2022-08-11T06:32:31.475Z,100.00
2022-08-11T06:35:09.987Z,100.00
2022-08-11T06:38:16.314Z,100.00
2022-08-11T06:41:16.488Z,100.00
2022-08-11T06:44:16.486Z,100.00
2022-08-11T06:46:52.196Z,100.00
2022-08-11T06:49:41.018Z,100.00
2022-08-11T06:52:34.839Z,100.00
2022-08-11T06:55:55.927Z,100.00
2022-08-11T06:58:14.949Z,100.00
2022-08-11T07:00:42.527Z,100.00
2022-08-11T07:03:16.915Z,100.00
2022-08-11T07:05:58.679Z,100.00
2022-08-11T07:09:08.840Z,99.80
2022-08-11T07:12:12.740Z,98.89
2022-08-11T07:15:05.718Z,98.61
2022-08-11T07:17:38.309Z,95.70
2022-08-11T07:20:25.412Z,94.37
2022-08-11T07:23:19.644Z,94.77
2022-08-11T07:26:11.202Z,93.25
2022-08-11T07:28:59.085Z,91.46
2022-08-11T07:31:51.148Z,89.12
2022-08-11T07:34:25.738Z,88.83
2022-08-11T07:37:00.927Z,87.59
2022-08-11T07:39:31.789Z,84.94
2022-08-11T07:42:00.277Z,84.61
2022-08-11T07:44:34.678Z,83.90
2022-08-11T07:47:21.280Z,82.94
2022-08-11T07:50:09.008Z,79.90
2022-08-11T07:52:38.484Z,75.05
2022-08-11T07:55:10.441Z,74.23
2022-08-11T07:58:15.136Z,73.54
2022-08-11T08:01:10.028Z,71.50
2022-08-11T08:04:03.037Z,70.97
2022-08-11T08:06:51.827Z,66.83
2022-08-11T08:09:39.631Z,65.02
2022-08-11T08:12:27.189Z,62.32
2022-08-11T08:15:14.184Z,62.04
2022-08-11T08:18:09.568Z,62.54
2022-08-11T08:20:52.197Z,62.10
2022-08-11T08:23:33.676Z,57.60
2022-08-11T08:26:04.655Z,58.10
2022-08-11T08:28:33.701Z,58.00
2022-08-11T08:31:00.861Z,55.90
2022-08-11T08:33:32.066Z,56.26
2022-08-11T08:36:12.095Z,55.97
2022-08-11T08:38:47.434Z,55.49
2022-08-11T08:41:19.663Z,54.85
2022-08-11T08:43:51.658Z,53.22
2022-08-11T08:46:24.686Z,53.22
2022-08-11T08:48:53.549Z,53.24
2022-08-11T08:52:01.151Z,52.44
2022-08-11T08:54:25.629Z,53.38
2022-08-11T08:56:55.462Z,52.38
2022-08-11T08:59:26.122Z,50.06
2022-08-11T09:02:02.267Z,50.56
2022-08-11T09:04:30.171Z,48.62
2022-08-11T09:07:00.204Z,48.16
2022-08-11T09:09:32.188Z,48.09
2022-08-11T09:12:00.025Z,47.68
2022-08-11T09:14:52.834Z,46.92
2022-08-11T09:17:21.060Z,47.14
2022-08-11T09:19:55.937Z,45.45
2022-08-11T09:22:42.993Z,43.92
2022-08-11T09:25:28.823Z,44.31
2022-08-11T09:27:56.740Z,43.60
2022-08-11T09:30:28.322Z,43.71
2022-08-11T09:32:58.062Z,43.41
2022-08-11T09:35:30.040Z,42.76
2022-08-11T09:38:16.751Z,41.34
2022-08-11T09:40:52.710Z,41.85
2022-08-11T09:43:43.421Z,40.39
2022-08-11T09:46:10.880Z,41.14
2022-08-11T09:48:40.878Z,41.39
2022-08-11T09:51:08.986Z,40.19
2022-08-11T09:53:40.909Z,39.30
2022-08-11T09:56:34.651Z,38.82
2022-08-11T09:59:03.907Z,38.08
2022-08-11T10:01:34.799Z,36.90
2022-08-11T10:04:08.766Z,37.39
2022-08-11T10:06:57.817Z,36.92
2022-08-11T10:09:25.843Z,36.17
2022-08-11T10:11:59.490Z,35.91
2022-08-11T10:14:49.201Z,35.04
2022-08-11T10:17:18.923Z,32.93
2022-08-11T10:20:02.011Z,33.12
2022-08-11T10:22:52.381Z,32.83
2022-08-11T10:25:39.763Z,31.38
2022-08-11T10:28:28.254Z,30.84
2022-08-11T10:31:16.386Z,30.74
2022-08-11T10:34:01.036Z,30.76
2022-08-11T10:36:32.751Z,29.64
2022-08-11T10:39:01.544Z,28.96
2022-08-11T10:42:06.807Z,28.02
2022-08-11T10:44:44.758Z,27.53
2022-08-11T10:47:32.989Z,27.26
2022-08-11T10:50:23.193Z,26.85
2022-08-11T10:53:11.713Z,26.92
2022-08-11T10:55:58.768Z,26.74
2022-08-11T10:58:45.324Z,26.46
2022-08-11T11:01:13.383Z,25.47
2022-08-11T11:03:41.021Z,24.54
2022-08-11T11:06:28.853Z,24.49
2022-08-11T11:09:04.776Z,24.60
2022-08-11T11:11:55.946Z,24.27
2022-08-11T11:14:56.432Z,24.71
2022-08-11T11:17:55.965Z,24.32
2022-08-11T11:20:35.866Z,24.81
2022-08-11T11:23:16.998Z,24.67
2022-08-11T11:26:13.312Z,24.66
2022-08-11T11:28:59.118Z,24.77
2022-08-11T11:31:37.752Z,24.84
2022-08-11T11:34:52.763Z,24.20
2022-08-11T11:37:23.297Z,23.32
2022-08-11T11:39:50.866Z,22.87
2022-08-11T11:42:19.254Z,23.14
2022-08-11T11:44:48.061Z,23.50
2022-08-11T11:47:18.303Z,23.09
2022-08-11T11:49:48.741Z,22.38
2022-08-11T11:52:21.237Z,21.82
2022-08-11T11:54:50.503Z,21.94
2022-08-11T11:57:38.118Z,21.72
2022-08-11T12:00:32.957Z,22.90
2022-08-11T12:03:03.258Z,20.98
2022-08-11T12:05:33.699Z,20.91
2022-08-11T12:08:18.111Z,21.17
2022-08-11T12:11:14.871Z,22.11
2022-08-11T12:13:44.786Z,22.27
2022-08-11T12:16:34.410Z,21.83
2022-08-11T12:19:04.519Z,22.53
2022-08-11T12:21:32.248Z,21.26
2022-08-11T12:24:20.461Z,21.75
2022-08-11T12:27:17.228Z,21.03
2022-08-11T12:29:51.426Z,20.98
2022-08-11T12:32:24.409Z,20.81
2022-08-11T12:35:00.298Z,21.04
2022-08-11T12:38:03.717Z,20.40
2022-08-11T12:41:14.957Z,19.83
2022-08-11T12:44:05.968Z,19.74
2022-08-11T12:46:40.632Z,19.39
2022-08-11T12:49:34.119Z,19.38
2022-08-11T12:52:14.520Z,18.56
2022-08-11T12:54:49.888Z,18.68
2022-08-11T12:57:42.990Z,18.93
2022-08-11T13:00:29.144Z,18.97
2022-08-11T13:03:16.343Z,19.89
2022-08-11T13:05:44.998Z,18.90
2022-08-11T13:08:15.464Z,19.17
2022-08-11T13:11:02.972Z,18.61
2022-08-11T13:13:52.515Z,19.19
2022-08-11T13:16:18.882Z,18.49
2022-08-11T13:18:46.278Z,18.42
2022-08-11T13:21:20.486Z,17.99
2022-08-11T13:24:00.264Z,18.04
2022-08-11T13:26:43.629Z,17.70
2022-08-11T13:29:24.082Z,17.33
2022-08-11T13:31:52.752Z,18.50
2022-08-11T13:34:20.819Z,17.93
2022-08-11T13:37:01.032Z,17.19
2022-08-11T13:39:31.250Z,17.49
2022-08-11T13:42:00.462Z,17.25
2022-08-11T13:44:30.085Z,18.50
2022-08-11T13:47:01.694Z,18.23
2022-08-11T13:49:34.960Z,17.79
2022-08-11T13:52:03.419Z,17.65
2022-08-11T13:54:38.449Z,17.85
2022-08-11T13:57:13.485Z,17.04
2022-08-11T14:00:09.763Z,18.39
2022-08-11T14:02:45.571Z,17.17
2022-08-11T14:05:17.483Z,17.68
2022-08-11T14:08:07.971Z,17.60
2022-08-11T14:12:20.186Z,17.84
2022-08-11T14:14:07.301Z,17.74
2022-08-11T14:16:41.202Z,17.36
2022-08-11T14:19:11.999Z,17.35
2022-08-11T14:22:06.550Z,17.54
2022-08-11T14:24:40.376Z,17.63
2022-08-11T14:28:15.446Z,17.25
2022-08-11T14:29:58.938Z,18.00
2022-08-11T14:32:26.878Z,17.81
2022-08-11T14:34:55.026Z,18.02
2022-08-11T14:37:24.259Z,17.56
2022-08-11T14:40:02.257Z,17.85
2022-08-11T14:42:48.768Z,17.52
2022-08-11T14:45:57.538Z,17.43
2022-08-11T14:48:23.707Z,17.82
2022-08-11T14:50:50.796Z,18.03
2022-08-11T14:53:18.929Z,17.86
2022-08-11T14:56:05.145Z,17.58
2022-08-11T14:58:34.006Z,17.54
2022-08-11T15:01:02.695Z,17.34
2022-08-11T15:03:33.789Z,17.47
2022-08-11T15:06:02.598Z,17.23
2022-08-11T15:08:52.334Z,17.16
2022-08-11T15:11:40.708Z,17.66
2022-08-11T15:14:09.564Z,17.06
2022-08-11T15:17:01.687Z,16.68
2022-08-11T15:19:40.546Z,16.90
2022-08-11T15:22:29.384Z,17.10
2022-08-11T15:24:59.537Z,17.55
2022-08-11T15:27:48.736Z,18.15
2022-08-11T15:30:34.902Z,17.79
2022-08-11T15:33:25.560Z,17.82
2022-08-11T15:36:12.818Z,18.63
2022-08-11T15:38:44.413Z,17.91
2022-08-11T15:41:35.960Z,18.37
2022-08-11T15:44:51.313Z,17.95
2022-08-11T15:47:15.723Z,17.77
2022-08-11T15:50:11.699Z,18.04
2022-08-11T15:52:40.945Z,18.00
2022-08-11T15:55:09.296Z,17.95
2022-08-11T15:57:56.116Z,18.48
2022-08-11T16:00:41.902Z,18.78
2022-08-11T16:04:06.008Z,18.66
2022-08-11T16:06:16.765Z,18.14
2022-08-11T16:08:45.041Z,18.13
2022-08-11T16:11:13.486Z,18.51
2022-08-11T16:13:40.970Z,19.12
2022-08-11T16:16:15.214Z,18.25
2022-08-11T16:18:57.010Z,18.98
2022-08-11T16:21:35.249Z,19.02
2022-08-11T16:24:09.662Z,18.97
2022-08-11T16:27:08.099Z,18.41
2022-08-11T16:29:42.877Z,18.26
2022-08-11T16:32:20.692Z,18.72
2022-08-11T16:35:16.404Z,18.30
2022-08-11T16:38:03.761Z,19.34
2022-08-11T16:40:32.376Z,18.83
2022-08-11T16:43:20.093Z,18.62
2022-08-11T16:46:06.925Z,18.78
2022-08-11T16:48:38.848Z,18.52
2022-08-11T16:51:11.814Z,18.68
2022-08-11T16:53:59.726Z,18.92
2022-08-11T16:56:37.617Z,18.88
2022-08-11T16:59:17.024Z,18.74
2022-08-11T17:02:09.856Z,19.08
2022-08-11T17:05:09.100Z,19.48
2022-08-11T17:07:57.295Z,21.09
2022-08-11T17:10:56.516Z,21.30
2022-08-11T17:13:35.340Z,22.50
2022-08-11T17:16:08.100Z,23.59
2022-08-11T17:18:44.059Z,23.25
2022-08-11T17:21:26.506Z,23.63
2022-08-11T17:24:09.490Z,24.05
2022-08-11T17:26:55.939Z,24.72
2022-08-11T17:29:28.868Z,25.33
2022-08-11T17:32:15.199Z,24.81
2022-08-11T17:35:05.494Z,25.21
2022-08-11T17:37:34.512Z,25.92
2022-08-11T17:40:05.326Z,25.66
2022-08-11T17:42:51.613Z,26.02
2022-08-11T17:45:40.807Z,25.63
2022-08-11T17:48:29.498Z,26.07
2022-08-11T17:51:06.646Z,25.98
2022-08-11T17:54:18.164Z,26.41
2022-08-11T17:57:03.358Z,26.71
2022-08-11T17:59:49.737Z,27.15
2022-08-11T18:02:36.886Z,26.89
2022-08-11T18:05:12.792Z,26.55
2022-08-11T18:08:01.576Z,26.89
2022-08-11T18:10:50.716Z,27.06
2022-08-11T18:13:43.633Z,26.93
2022-08-11T18:16:29.858Z,26.71
2022-08-11T18:19:15.596Z,26.09
2022-08-11T18:22:15.431Z,26.12
2022-08-11T18:25:10.766Z,25.84
2022-08-11T18:27:59.372Z,25.85
2022-08-11T18:30:46.167Z,25.99
2022-08-11T18:36:45.640Z,27.32
2022-08-11T18:39:33.413Z,27.68
2022-08-11T18:42:29.010Z,27.88
2022-08-11T18:45:20.086Z,28.51
2022-08-11T18:48:09.348Z,29.28
2022-08-11T18:51:29.935Z,29.69
2022-08-11T18:54:09.020Z,30.79
2022-08-11T18:56:55.059Z,31.18
2022-08-11T18:59:44.779Z,31.25
2022-08-11T19:02:48.307Z,31.95
2022-08-11T19:06:35.542Z,32.42
2022-08-11T19:08:47.882Z,33.32
2022-08-11T19:11:34.590Z,33.89
2022-08-11T19:14:29.258Z,34.50
2022-08-11T19:17:43.308Z,34.73
2022-08-11T19:20:26.976Z,35.12
2022-08-11T19:23:15.454Z,35.72
2022-08-11T19:26:03.926Z,35.86
2022-08-11T19:28:54.179Z,36.00
2022-08-11T19:31:44.315Z,36.28
2022-08-11T19:34:39.593Z,35.78
2022-08-11T19:37:26.345Z,35.95
2022-08-11T19:40:19.768Z,35.93
2022-08-11T19:43:11.172Z,36.92
2022-08-11T19:46:12.030Z,37.59
2022-08-11T19:49:00.555Z,37.63
2022-08-11T19:51:47.962Z,37.77
2022-08-11T19:54:43.035Z,38.28
2022-08-11T19:57:29.011Z,38.40
2022-08-11T20:00:15.335Z,38.43
2022-08-11T20:03:01.828Z,38.42
2022-08-11T20:05:59.795Z,39.38
2022-08-11T20:08:48.361Z,39.90
2022-08-11T20:11:34.665Z,40.53
2022-08-11T20:14:21.305Z,40.54
2022-08-11T20:17:07.107Z,41.07
2022-08-11T20:19:57.448Z,41.03
2022-08-11T20:22:46.349Z,41.64
2022-08-11T20:25:34.935Z,42.04
2022-08-11T20:28:24.239Z,42.18
2022-08-11T20:31:10.957Z,43.30
2022-08-11T20:33:57.706Z,43.26
2022-08-11T20:36:45.075Z,44.27
2022-08-11T20:39:34.383Z,44.27
2022-08-11T20:42:21.809Z,44.53
2022-08-11T20:45:10.093Z,46.14
2022-08-11T20:48:00.777Z,46.20
2022-08-11T20:50:49.792Z,47.28
2022-08-11T20:53:40.677Z,48.21
2022-08-11T20:56:28.779Z,49.37
2022-08-11T20:59:21.625Z,50.55
2022-08-11T21:02:09.641Z,51.38
2022-08-11T21:04:57.467Z,52.86
2022-08-11T21:07:50.297Z,53.20
2022-08-11T21:10:44.792Z,54.72
2022-08-11T21:13:34.286Z,54.71
2022-08-11T21:16:26.280Z,55.57
2022-08-11T21:19:55.177Z,57.19
2022-08-11T21:22:59.158Z,57.22
2022-08-11T21:26:02.181Z,58.20
2022-08-11T21:28:48.854Z,58.16
2022-08-11T21:31:34.807Z,58.77
2022-08-11T21:34:22.353Z,59.18
2022-08-11T21:37:09.164Z,60.53
2022-08-11T21:39:54.862Z,61.21
2022-08-11T21:42:41.470Z,61.95
2022-08-11T21:45:27.902Z,62.06
2022-08-11T21:48:14.880Z,62.36
2022-08-11T21:51:01.468Z,62.69
2022-08-11T21:53:47.066Z,63.67
2022-08-11T21:56:33.619Z,64.61
2022-08-11T21:59:20.266Z,65.28
2022-08-11T22:02:12.431Z,66.30
2022-08-11T22:05:00.203Z,66.42
2022-08-11T22:07:47.115Z,66.91
2022-08-11T22:10:41.590Z,67.96
2022-08-11T22:13:30.323Z,70.48
2022-08-11T22:16:19.685Z,70.26
2022-08-11T22:19:09.949Z,71.63
2022-08-11T22:22:03.083Z,73.17
2022-08-11T22:24:51.316Z,74.85
2022-08-11T22:27:37.135Z,75.92
2022-08-11T22:30:23.991Z,77.23
2022-08-11T22:33:10.375Z,77.19
2022-08-11T22:35:58.273Z,78.13
2022-08-11T22:38:45.353Z,79.49
2022-08-11T22:41:31.844Z,79.47
2022-08-11T22:44:17.654Z,80.09
2022-08-11T22:47:03.662Z,81.16
2022-08-11T22:49:57.741Z,82.18
2022-08-11T22:52:46.858Z,84.04
2022-08-11T22:55:33.956Z,86.02
2022-08-11T22:58:20.621Z,85.92
2022-08-11T23:01:07.683Z,86.58
2022-08-11T23:03:53.984Z,85.95
2022-08-11T23:06:40.967Z,86.61
2022-08-11T23:09:27.558Z,88.31
2022-08-11T23:12:13.359Z,88.10
2022-08-11T23:14:59.158Z,89.27
2022-08-11T23:17:46.624Z,90.58
2022-08-11T23:20:36.205Z,90.48
2022-08-11T23:23:34.942Z,90.55
2022-08-11T23:26:22.222Z,92.15
2022-08-11T23:29:07.990Z,91.07
2022-08-11T23:31:56.244Z,91.95
2022-08-11T23:35:03.973Z,92.30
2022-08-11T23:37:56.045Z,93.96
2022-08-11T23:40:45.510Z,93.79
2022-08-11T23:43:41.162Z,94.20
2022-08-11T23:46:26.485Z,94.81
2022-08-11T23:49:15.846Z,96.08
2022-08-11T23:52:02.462Z,97.01
2022-08-11T23:54:48.708Z,96.68
2022-08-11T23:57:34.302Z,97.22
